sensor_id;sensor_type;location;lat;lon;timestamp;P1;durP1;ratioP1;P2;durP2;ratioP2
15327;SDS011;7764;51.430;6.840;2023-11-22T00:00:47;24.57;;;17.17;;
15327;SDS011;7764;51.430;6.840;2023-11-22T00:03:13;28.00;;;17.40;;
15327;SDS011;7764;51.430;6.840;2023-11-22T00:05:40;25.73;;;18.27;;
15327;SDS011;7764;51.430;6.840;2023-11-22T00:08:07;25.70;;;18.80;;
15327;SDS011;7764;51.430;6.840;2023-11-22T00:10:34;27.83;;;19.70;;
15327;SDS011;7764;51.430;6.840;2023-11-22T00:13:01;30.07;;;20.37;;
15327;SDS011;7764;51.430;6.840;2023-11-22T00:15:29;30.47;;;20.23;;
15327;SDS011;7764;51.430;6.840;2023-11-22T00:17:56;27.50;;;19.40;;
15327;SDS011;7764;51.430;6.840;2023-11-22T00:20:23;28.23;;;18.67;;
15327;SDS011;7764;51.430;6.840;2023-11-22T00:22:50;24.70;;;18.33;;
15327;SDS011;7764;51.430;6.840;2023-11-22T00:25:17;23.63;;;16.97;;
15327;SDS011;7764;51.430;6.840;2023-11-22T00:27:44;24.70;;;16.00;;
15327;SDS011;7764;51.430;6.840;2023-11-22T00:30:12;21.57;;;15.67;;
15327;SDS011;7764;51.430;6.840;2023-11-22T00:32:40;21.53;;;15.70;;
15327;SDS011;7764;51.430;6.840;2023-11-22T00:35:07;22.83;;;16.47;;
15327;SDS011;7764;51.430;6.840;2023-11-22T00:37:34;21.73;;;15.10;;
15327;SDS011;7764;51.430;6.840;2023-11-22T00:40:01;27.23;;;15.93;;
15327;SDS011;7764;51.430;6.840;2023-11-22T00:42:35;22.70;;;15.40;;
15327;SDS011;7764;51.430;6.840;2023-11-22T00:45:02;21.67;;;15.33;;
15327;SDS011;7764;51.430;6.840;2023-11-22T00:47:31;19.80;;;14.33;;
15327;SDS011;7764;51.430;6.840;2023-11-22T00:49:59;19.07;;;13.27;;
15327;SDS011;7764;51.430;6.840;2023-11-22T00:52:28;17.23;;;12.43;;
15327;SDS011;7764;51.430;6.840;2023-11-22T00:54:55;18.43;;;12.57;;
15327;SDS011;7764;51.430;6.840;2023-11-22T00:57:22;17.83;;;12.90;;
15327;SDS011;7764;51.430;6.840;2023-11-22T00:59:49;18.67;;;12.37;;
15327;SDS011;7764;51.430;6.840;2023-11-22T01:02:16;15.83;;;12.20;;
15327;SDS011;7764;51.430;6.840;2023-11-22T01:04:43;17.80;;;12.40;;
15327;SDS011;7764;51.430;6.840;2023-11-22T01:07:11;22.13;;;12.63;;
15327;SDS011;7764;51.430;6.840;2023-11-22T01:09:38;17.87;;;11.87;;
15327;SDS011;7764;51.430;6.840;2023-11-22T01:12:06;18.57;;;12.33;;
15327;SDS011;7764;51.430;6.840;2023-11-22T01:14:34;19.33;;;11.80;;
15327;SDS011;7764;51.430;6.840;2023-11-22T01:17:01;19.53;;;12.73;;
15327;SDS011;7764;51.430;6.840;2023-11-22T01:19:28;18.23;;;12.47;;
15327;SDS011;7764;51.430;6.840;2023-11-22T01:21:55;17.53;;;12.73;;
15327;SDS011;7764;51.430;6.840;2023-11-22T01:24:23;17.93;;;12.63;;
15327;SDS011;7764;51.430;6.840;2023-11-22T01:26:51;19.43;;;12.40;;
15327;SDS011;7764;51.430;6.840;2023-11-22T01:29:18;18.70;;;13.00;;
15327;SDS011;7764;51.430;6.840;2023-11-22T01:31:44;18.83;;;12.97;;
15327;SDS011;7764;51.430;6.840;2023-11-22T01:34:12;18.63;;;13.10;;
15327;SDS011;7764;51.430;6.840;2023-11-22T01:36:41;17.10;;;12.00;;
15327;SDS011;7764;51.430;6.840;2023-11-22T01:39:10;18.77;;;12.43;;
15327;SDS011;7764;51.430;6.840;2023-11-22T01:41:39;20.50;;;12.50;;
15327;SDS011;7764;51.430;6.840;2023-11-22T01:44:08;19.80;;;12.40;;
15327;SDS011;7764;51.430;6.840;2023-11-22T01:46:34;18.97;;;12.90;;
15327;SDS011;7764;51.430;6.840;2023-11-22T01:49:01;17.43;;;12.30;;
15327;SDS011;7764;51.430;6.840;2023-11-22T01:51:29;18.70;;;12.27;;
15327;SDS011;7764;51.430;6.840;2023-11-22T01:53:56;18.33;;;11.93;;
15327;SDS011;7764;51.430;6.840;2023-11-22T01:56:25;19.77;;;12.57;;
15327;SDS011;7764;51.430;6.840;2023-11-22T01:58:55;18.63;;;12.73;;
15327;SDS011;7764;51.430;6.840;2023-11-22T02:12:04;20.47;;;13.17;;
15327;SDS011;7764;51.430;6.840;2023-11-22T02:14:33;20.77;;;12.93;;
15327;SDS011;7764;51.430;6.840;2023-11-22T02:17:00;20.03;;;13.07;;
15327;SDS011;7764;51.430;6.840;2023-11-22T02:19:27;21.83;;;13.67;;
15327;SDS011;7764;51.430;6.840;2023-11-22T02:21:55;21.03;;;14.17;;
15327;SDS011;7764;51.430;6.840;2023-11-22T02:24:26;24.20;;;15.60;;
15327;SDS011;7764;51.430;6.840;2023-11-22T02:26:53;22.40;;;15.13;;
15327;SDS011;7764;51.430;6.840;2023-11-22T02:29:19;23.30;;;16.50;;
15327;SDS011;7764;51.430;6.840;2023-11-22T02:31:47;26.80;;;16.97;;
15327;SDS011;7764;51.430;6.840;2023-11-22T02:34:14;28.60;;;17.23;;
15327;SDS011;7764;51.430;6.840;2023-11-22T02:36:42;25.50;;;18.27;;
15327;SDS011;7764;51.430;6.840;2023-11-22T02:39:09;24.63;;;16.33;;
15327;SDS011;7764;51.430;6.840;2023-11-22T02:41:39;25.27;;;16.93;;
15327;SDS011;7764;51.430;6.840;2023-11-22T02:44:06;28.40;;;17.03;;
15327;SDS011;7764;51.430;6.840;2023-11-22T02:46:33;25.07;;;17.37;;
15327;SDS011;7764;51.430;6.840;2023-11-22T02:49:00;25.83;;;17.43;;
15327;SDS011;7764;51.430;6.840;2023-11-22T02:51:27;25.70;;;17.47;;
15327;SDS011;7764;51.430;6.840;2023-11-22T02:53:54;31.63;;;17.37;;
15327;SDS011;7764;51.430;6.840;2023-11-22T02:56:21;26.53;;;17.80;;
15327;SDS011;7764;51.430;6.840;2023-11-22T02:58:49;25.20;;;17.57;;
15327;SDS011;7764;51.430;6.840;2023-11-22T03:01:16;27.33;;;18.13;;
15327;SDS011;7764;51.430;6.840;2023-11-22T03:03:43;26.03;;;17.83;;
15327;SDS011;7764;51.430;6.840;2023-11-22T03:06:10;29.13;;;18.00;;
15327;SDS011;7764;51.430;6.840;2023-11-22T03:08:36;28.93;;;19.03;;
15327;SDS011;7764;51.430;6.840;2023-11-22T03:11:03;28.37;;;17.83;;
15327;SDS011;7764;51.430;6.840;2023-11-22T03:13:31;28.53;;;19.03;;
15327;SDS011;7764;51.430;6.840;2023-11-22T03:16:00;30.10;;;19.40;;
15327;SDS011;7764;51.430;6.840;2023-11-22T03:18:28;28.53;;;18.60;;
15327;SDS011;7764;51.430;6.840;2023-11-22T03:20:56;27.37;;;18.43;;
15327;SDS011;7764;51.430;6.840;2023-11-22T03:23:23;27.40;;;18.77;;
15327;SDS011;7764;51.430;6.840;2023-11-22T03:25:51;28.13;;;18.73;;
15327;SDS011;7764;51.430;6.840;2023-11-22T03:28:18;29.50;;;19.73;;
15327;SDS011;7764;51.430;6.840;2023-11-22T03:30:45;27.07;;;18.80;;
15327;SDS011;7764;51.430;6.840;2023-11-22T03:33:13;30.97;;;19.13;;
15327;SDS011;7764;51.430;6.840;2023-11-22T03:35:40;28.93;;;19.03;;
15327;SDS011;7764;51.430;6.840;2023-11-22T03:38:07;27.90;;;18.57;;
15327;SDS011;7764;51.430;6.840;2023-11-22T03:40:35;29.60;;;18.83;;
15327;SDS011;7764;51.430;6.840;2023-11-22T03:43:02;26.20;;;18.03;;
15327;SDS011;7764;51.430;6.840;2023-11-22T03:45:28;27.43;;;18.27;;
15327;SDS011;7764;51.430;6.840;2023-11-22T03:47:55;25.07;;;17.13;;
15327;SDS011;7764;51.430;6.840;2023-11-22T03:50:24;25.53;;;17.33;;
15327;SDS011;7764;51.430;6.840;2023-11-22T03:52:51;27.97;;;18.57;;
15327;SDS011;7764;51.430;6.840;2023-11-22T03:55:17;27.63;;;17.57;;
15327;SDS011;7764;51.430;6.840;2023-11-22T03:57:44;25.13;;;16.83;;
15327;SDS011;7764;51.430;6.840;2023-11-22T04:00:11;23.97;;;15.93;;
15327;SDS011;7764;51.430;6.840;2023-11-22T04:02:39;26.83;;;16.17;;
15327;SDS011;7764;51.430;6.840;2023-11-22T04:05:07;23.17;;;15.50;;
15327;SDS011;7764;51.430;6.840;2023-11-22T04:07:38;23.30;;;15.53;;
15327;SDS011;7764;51.430;6.840;2023-11-22T04:10:05;23.30;;;15.23;;
15327;SDS011;7764;51.430;6.840;2023-11-22T04:12:32;25.80;;;14.93;;
15327;SDS011;7764;51.430;6.840;2023-11-22T04:14:59;25.47;;;16.30;;
15327;SDS011;7764;51.430;6.840;2023-11-22T04:17:26;21.40;;;14.40;;
15327;SDS011;7764;51.430;6.840;2023-11-22T04:19:53;25.73;;;15.20;;
15327;SDS011;7764;51.430;6.840;2023-11-22T04:22:19;21.50;;;14.23;;
15327;SDS011;7764;51.430;6.840;2023-11-22T04:24:48;22.27;;;13.20;;
15327;SDS011;7764;51.430;6.840;2023-11-22T04:27:15;24.03;;;15.87;;
15327;SDS011;7764;51.430;6.840;2023-11-22T04:29:41;24.07;;;14.77;;
15327;SDS011;7764;51.430;6.840;2023-11-22T04:32:08;22.60;;;14.87;;
15327;SDS011;7764;51.430;6.840;2023-11-22T04:34:35;24.17;;;15.67;;
15327;SDS011;7764;51.430;6.840;2023-11-22T04:37:02;24.50;;;14.47;;
15327;SDS011;7764;51.430;6.840;2023-11-22T04:39:30;20.67;;;14.10;;
15327;SDS011;7764;51.430;6.840;2023-11-22T04:41:58;20.87;;;12.67;;
15327;SDS011;7764;51.430;6.840;2023-11-22T04:44:27;24.83;;;14.43;;
15327;SDS011;7764;51.430;6.840;2023-11-22T04:46:54;21.73;;;14.07;;
15327;SDS011;7764;51.430;6.840;2023-11-22T04:49:22;21.50;;;13.87;;
15327;SDS011;7764;51.430;6.840;2023-11-22T04:51:49;25.43;;;14.73;;
15327;SDS011;7764;51.430;6.840;2023-11-22T04:54:16;22.97;;;15.37;;
15327;SDS011;7764;51.430;6.840;2023-11-22T04:56:43;22.27;;;13.97;;
15327;SDS011;7764;51.430;6.840;2023-11-22T04:59:11;21.17;;;13.87;;
15327;SDS011;7764;51.430;6.840;2023-11-22T05:01:38;20.57;;;13.73;;
15327;SDS011;7764;51.430;6.840;2023-11-22T05:04:05;23.13;;;14.10;;
15327;SDS011;7764;51.430;6.840;2023-11-22T05:06:32;22.90;;;14.27;;
15327;SDS011;7764;51.430;6.840;2023-11-22T05:08:59;23.17;;;14.17;;
15327;SDS011;7764;51.430;6.840;2023-11-22T05:11:26;19.83;;;13.30;;
15327;SDS011;7764;51.430;6.840;2023-11-22T05:13:53;20.37;;;13.13;;
15327;SDS011;7764;51.430;6.840;2023-11-22T05:16:21;21.40;;;13.50;;
15327;SDS011;7764;51.430;6.840;2023-11-22T05:18:48;23.23;;;13.70;;
15327;SDS011;7764;51.430;6.840;2023-11-22T05:21:15;20.47;;;13.47;;
15327;SDS011;7764;51.430;6.840;2023-11-22T05:23:42;19.73;;;13.30;;
15327;SDS011;7764;51.430;6.840;2023-11-22T05:26:09;21.77;;;13.67;;
15327;SDS011;7764;51.430;6.840;2023-11-22T05:28:36;21.47;;;13.20;;
15327;SDS011;7764;51.430;6.840;2023-11-22T05:31:03;21.17;;;13.67;;
15327;SDS011;7764;51.430;6.840;2023-11-22T05:33:35;21.47;;;13.63;;
15327;SDS011;7764;51.430;6.840;2023-11-22T05:36:03;20.03;;;14.13;;
15327;SDS011;7764;51.430;6.840;2023-11-22T05:38:30;23.00;;;13.40;;
15327;SDS011;7764;51.430;6.840;2023-11-22T05:40:58;23.00;;;14.23;;
15327;SDS011;7764;51.430;6.840;2023-11-22T05:43:25;21.10;;;13.80;;
15327;SDS011;7764;51.430;6.840;2023-11-22T05:45:52;124.70;;;72.83;;
15327;SDS011;7764;51.430;6.840;2023-11-22T05:48:19;80.77;;;52.97;;
15327;SDS011;7764;51.430;6.840;2023-11-22T05:50:47;22.63;;;14.10;;
15327;SDS011;7764;51.430;6.840;2023-11-22T05:53:15;21.03;;;13.20;;
15327;SDS011;7764;51.430;6.840;2023-11-22T05:55:44;20.53;;;13.07;;
15327;SDS011;7764;51.430;6.840;2023-11-22T05:58:11;21.10;;;13.33;;
15327;SDS011;7764;51.430;6.840;2023-11-22T06:00:41;20.23;;;13.70;;
15327;SDS011;7764;51.430;6.840;2023-11-22T06:03:08;23.43;;;14.13;;
15327;SDS011;7764;51.430;6.840;2023-11-22T06:05:35;21.20;;;14.17;;
15327;SDS011;7764;51.430;6.840;2023-11-22T06:08:04;24.53;;;14.37;;
15327;SDS011;7764;51.430;6.840;2023-11-22T06:10:31;21.37;;;13.90;;
15327;SDS011;7764;51.430;6.840;2023-11-22T06:12:58;21.70;;;13.43;;
15327;SDS011;7764;51.430;6.840;2023-11-22T06:15:25;24.63;;;13.57;;
15327;SDS011;7764;51.430;6.840;2023-11-22T06:17:52;20.63;;;13.43;;
15327;SDS011;7764;51.430;6.840;2023-11-22T06:20:19;24.07;;;15.80;;
15327;SDS011;7764;51.430;6.840;2023-11-22T06:22:46;23.60;;;15.10;;
15327;SDS011;7764;51.430;6.840;2023-11-22T06:25:14;22.70;;;14.90;;
15327;SDS011;7764;51.430;6.840;2023-11-22T06:27:41;25.83;;;14.67;;
15327;SDS011;7764;51.430;6.840;2023-11-22T06:30:09;27.30;;;14.83;;
15327;SDS011;7764;51.430;6.840;2023-11-22T06:32:36;24.63;;;15.03;;
15327;SDS011;7764;51.430;6.840;2023-11-22T06:35:03;27.00;;;15.77;;
15327;SDS011;7764;51.430;6.840;2023-11-22T06:37:33;29.87;;;16.50;;
15327;SDS011;7764;51.430;6.840;2023-11-22T06:40:00;30.97;;;17.80;;
15327;SDS011;7764;51.430;6.840;2023-11-22T06:42:29;26.23;;;16.13;;
15327;SDS011;7764;51.430;6.840;2023-11-22T06:44:55;23.50;;;15.43;;
15327;SDS011;7764;51.430;6.840;2023-11-22T06:47:25;25.80;;;15.57;;
15327;SDS011;7764;51.430;6.840;2023-11-22T06:49:53;29.60;;;17.80;;
15327;SDS011;7764;51.430;6.840;2023-11-22T06:52:20;32.27;;;18.33;;
15327;SDS011;7764;51.430;6.840;2023-11-22T06:54:47;36.07;;;19.93;;
15327;SDS011;7764;51.430;6.840;2023-11-22T06:57:14;31.47;;;17.30;;
15327;SDS011;7764;51.430;6.840;2023-11-22T06:59:42;32.63;;;18.53;;
15327;SDS011;7764;51.430;6.840;2023-11-22T07:02:09;32.23;;;18.13;;
15327;SDS011;7764;51.430;6.840;2023-11-22T07:04:36;28.23;;;15.97;;
15327;SDS011;7764;51.430;6.840;2023-11-22T07:07:04;25.17;;;16.07;;
15327;SDS011;7764;51.430;6.840;2023-11-22T07:09:36;25.03;;;14.97;;
15327;SDS011;7764;51.430;6.840;2023-11-22T07:12:05;23.30;;;14.57;;
15327;SDS011;7764;51.430;6.840;2023-11-22T07:14:32;21.40;;;13.57;;
15327;SDS011;7764;51.430;6.840;2023-11-22T07:17:01;23.10;;;13.83;;
15327;SDS011;7764;51.430;6.840;2023-11-22T07:19:27;18.83;;;12.70;;
15327;SDS011;7764;51.430;6.840;2023-11-22T07:21:54;22.37;;;14.07;;
15327;SDS011;7764;51.430;6.840;2023-11-22T07:24:21;25.60;;;13.07;;
15327;SDS011;7764;51.430;6.840;2023-11-22T07:26:48;24.23;;;14.27;;
15327;SDS011;7764;51.430;6.840;2023-11-22T07:29:15;24.70;;;15.37;;
15327;SDS011;7764;51.430;6.840;2023-11-22T07:31:42;25.03;;;14.33;;
15327;SDS011;7764;51.430;6.840;2023-11-22T07:34:11;42.27;;;29.23;;
15327;SDS011;7764;51.430;6.840;2023-11-22T07:36:38;32.87;;;19.53;;
15327;SDS011;7764;51.430;6.840;2023-11-22T07:39:05;44.67;;;24.67;;
15327;SDS011;7764;51.430;6.840;2023-11-22T07:41:32;25.03;;;15.10;;
15327;SDS011;7764;51.430;6.840;2023-11-22T07:44:01;41.90;;;19.80;;
15327;SDS011;7764;51.430;6.840;2023-11-22T07:46:28;24.33;;;14.73;;
15327;SDS011;7764;51.430;6.840;2023-11-22T07:48:55;23.27;;;13.67;;
15327;SDS011;7764;51.430;6.840;2023-11-22T07:51:24;21.97;;;13.77;;
15327;SDS011;7764;51.430;6.840;2023-11-22T07:53:52;24.77;;;14.27;;
15327;SDS011;7764;51.430;6.840;2023-11-22T07:56:20;21.27;;;13.40;;
15327;SDS011;7764;51.430;6.840;2023-11-22T07:58:47;22.40;;;13.83;;
15327;SDS011;7764;51.430;6.840;2023-11-22T08:01:15;21.83;;;12.97;;
15327;SDS011;7764;51.430;6.840;2023-11-22T08:03:43;19.93;;;12.60;;
15327;SDS011;7764;51.430;6.840;2023-11-22T08:06:10;22.67;;;12.83;;
15327;SDS011;7764;51.430;6.840;2023-11-22T08:08:39;24.40;;;15.70;;
15327;SDS011;7764;51.430;6.840;2023-11-22T08:11:06;19.97;;;11.90;;
15327;SDS011;7764;51.430;6.840;2023-11-22T08:13:40;19.77;;;11.70;;
15327;SDS011;7764;51.430;6.840;2023-11-22T08:16:08;20.53;;;11.37;;
15327;SDS011;7764;51.430;6.840;2023-11-22T08:18:38;15.27;;;10.30;;
15327;SDS011;7764;51.430;6.840;2023-11-22T08:21:05;17.20;;;10.37;;
15327;SDS011;7764;51.430;6.840;2023-11-22T08:23:33;16.53;;;10.37;;
15327;SDS011;7764;51.430;6.840;2023-11-22T08:26:01;15.83;;;10.03;;
15327;SDS011;7764;51.430;6.840;2023-11-22T08:28:29;16.27;;;10.53;;
15327;SDS011;7764;51.430;6.840;2023-11-22T08:30:58;17.70;;;10.37;;
15327;SDS011;7764;51.430;6.840;2023-11-22T08:33:25;17.63;;;10.67;;
15327;SDS011;7764;51.430;6.840;2023-11-22T08:35:52;16.10;;;10.03;;
15327;SDS011;7764;51.430;6.840;2023-11-22T08:38:24;15.77;;;10.40;;
15327;SDS011;7764;51.430;6.840;2023-11-22T08:40:51;14.90;;;10.03;;
15327;SDS011;7764;51.430;6.840;2023-11-22T08:43:21;16.37;;;10.57;;
15327;SDS011;7764;51.430;6.840;2023-11-22T08:45:50;59.97;;;36.93;;
15327;SDS011;7764;51.430;6.840;2023-11-22T08:48:17;15.83;;;10.20;;
15327;SDS011;7764;51.430;6.840;2023-11-22T08:50:45;17.77;;;10.13;;
15327;SDS011;7764;51.430;6.840;2023-11-22T08:53:13;14.17;;;8.83;;
15327;SDS011;7764;51.430;6.840;2023-11-22T08:55:43;15.33;;;9.70;;
15327;SDS011;7764;51.430;6.840;2023-11-22T08:58:10;16.73;;;10.57;;
15327;SDS011;7764;51.430;6.840;2023-11-22T09:00:40;16.80;;;9.67;;
15327;SDS011;7764;51.430;6.840;2023-11-22T09:03:10;11.53;;;8.40;;
15327;SDS011;7764;51.430;6.840;2023-11-22T09:05:37;14.30;;;9.73;;
15327;SDS011;7764;51.430;6.840;2023-11-22T09:08:05;16.20;;;9.67;;
15327;SDS011;7764;51.430;6.840;2023-11-22T09:10:32;15.30;;;9.90;;
15327;SDS011;7764;51.430;6.840;2023-11-22T09:13:00;16.83;;;10.33;;
15327;SDS011;7764;51.430;6.840;2023-11-22T09:15:28;13.67;;;8.93;;
15327;SDS011;7764;51.430;6.840;2023-11-22T09:17:56;14.27;;;9.40;;
15327;SDS011;7764;51.430;6.840;2023-11-22T09:20:25;14.33;;;9.17;;
15327;SDS011;7764;51.430;6.840;2023-11-22T09:22:52;28.63;;;17.80;;
15327;SDS011;7764;51.430;6.840;2023-11-22T09:25:20;16.27;;;9.60;;
15327;SDS011;7764;51.430;6.840;2023-11-22T09:27:49;13.97;;;9.00;;
15327;SDS011;7764;51.430;6.840;2023-11-22T09:30:21;16.73;;;8.83;;
15327;SDS011;7764;51.430;6.840;2023-11-22T09:33:01;13.77;;;8.40;;
15327;SDS011;7764;51.430;6.840;2023-11-22T09:35:32;16.73;;;9.30;;
15327;SDS011;7764;51.430;6.840;2023-11-22T09:37:59;11.27;;;7.43;;
15327;SDS011;7764;51.430;6.840;2023-11-22T09:40:30;11.67;;;7.60;;
15327;SDS011;7764;51.430;6.840;2023-11-22T09:42:58;10.90;;;6.40;;
15327;SDS011;7764;51.430;6.840;2023-11-22T09:45:27;12.17;;;7.37;;
15327;SDS011;7764;51.430;6.840;2023-11-22T09:47:55;12.23;;;8.37;;
15327;SDS011;7764;51.430;6.840;2023-11-22T09:50:32;9.50;;;6.60;;
15327;SDS011;7764;51.430;6.840;2023-11-22T09:53:07;16.83;;;9.23;;
15327;SDS011;7764;51.430;6.840;2023-11-22T09:55:49;10.53;;;6.63;;
15327;SDS011;7764;51.430;6.840;2023-11-22T09:58:30;11.27;;;7.47;;
15327;SDS011;7764;51.430;6.840;2023-11-22T10:00:59;11.03;;;6.27;;
15327;SDS011;7764;51.430;6.840;2023-11-22T10:03:27;15.77;;;10.73;;
15327;SDS011;7764;51.430;6.840;2023-11-22T10:05:58;10.03;;;6.00;;
15327;SDS011;7764;51.430;6.840;2023-11-22T10:08:25;11.40;;;5.50;;
15327;SDS011;7764;51.430;6.840;2023-11-22T10:10:55;13.57;;;7.20;;
15327;SDS011;7764;51.430;6.840;2023-11-22T10:13:23;77.27;;;45.47;;
15327;SDS011;7764;51.430;6.840;2023-11-22T10:15:50;18.37;;;11.60;;
15327;SDS011;7764;51.430;6.840;2023-11-22T10:18:17;17.87;;;11.60;;
15327;SDS011;7764;51.430;6.840;2023-11-22T10:20:46;10.87;;;7.37;;
15327;SDS011;7764;51.430;6.840;2023-11-22T10:23:16;11.43;;;6.77;;
15327;SDS011;7764;51.430;6.840;2023-11-22T10:25:45;15.57;;;8.93;;
15327;SDS011;7764;51.430;6.840;2023-11-22T10:28:14;11.37;;;7.30;;
15327;SDS011;7764;51.430;6.840;2023-11-22T10:30:43;11.20;;;7.60;;
15327;SDS011;7764;51.430;6.840;2023-11-22T10:33:10;13.87;;;7.10;;
15327;SDS011;7764;51.430;6.840;2023-11-22T10:35:41;11.00;;;6.73;;
15327;SDS011;7764;51.430;6.840;2023-11-22T10:38:09;10.10;;;6.57;;
15327;SDS011;7764;51.430;6.840;2023-11-22T10:40:38;12.63;;;7.33;;
15327;SDS011;7764;51.430;6.840;2023-11-22T10:43:06;11.37;;;6.90;;
15327;SDS011;7764;51.430;6.840;2023-11-22T10:45:35;11.47;;;7.27;;
15327;SDS011;7764;51.430;6.840;2023-11-22T10:48:04;12.10;;;7.00;;
15327;SDS011;7764;51.430;6.840;2023-11-22T10:50:34;14.53;;;7.37;;
15327;SDS011;7764;51.430;6.840;2023-11-22T10:53:02;11.03;;;7.47;;
15327;SDS011;7764;51.430;6.840;2023-11-22T10:55:34;11.93;;;7.63;;
15327;SDS011;7764;51.430;6.840;2023-11-22T10:58:13;13.23;;;7.60;;
15327;SDS011;7764;51.430;6.840;2023-11-22T11:00:42;13.10;;;7.67;;
15327;SDS011;7764;51.430;6.840;2023-11-22T11:03:14;14.70;;;8.40;;
15327;SDS011;7764;51.430;6.840;2023-11-22T11:05:44;15.93;;;7.60;;
15327;SDS011;7764;51.430;6.840;2023-11-22T11:08:16;11.40;;;6.67;;
15327;SDS011;7764;51.430;6.840;2023-11-22T11:10:49;12.87;;;7.43;;
15327;SDS011;7764;51.430;6.840;2023-11-22T11:13:18;13.60;;;7.83;;
15327;SDS011;7764;51.430;6.840;2023-11-22T11:15:46;20.43;;;8.90;;
15327;SDS011;7764;51.430;6.840;2023-11-22T11:18:15;13.70;;;6.80;;
15327;SDS011;7764;51.430;6.840;2023-11-22T11:20:45;12.63;;;7.50;;
15327;SDS011;7764;51.430;6.840;2023-11-22T11:23:14;13.47;;;7.60;;
15327;SDS011;7764;51.430;6.840;2023-11-22T11:25:41;11.37;;;6.60;;
15327;SDS011;7764;51.430;6.840;2023-11-22T11:28:10;17.63;;;8.47;;
15327;SDS011;7764;51.430;6.840;2023-11-22T11:30:43;15.20;;;9.27;;
15327;SDS011;7764;51.430;6.840;2023-11-22T11:33:11;16.10;;;8.67;;
15327;SDS011;7764;51.430;6.840;2023-11-22T11:35:41;11.67;;;7.20;;
15327;SDS011;7764;51.430;6.840;2023-11-22T11:38:16;12.00;;;7.37;;
15327;SDS011;7764;51.430;6.840;2023-11-22T11:40:46;12.77;;;7.00;;
15327;SDS011;7764;51.430;6.840;2023-11-22T11:43:15;12.80;;;7.60;;
15327;SDS011;7764;51.430;6.840;2023-11-22T11:45:49;12.53;;;7.90;;
15327;SDS011;7764;51.430;6.840;2023-11-22T11:48:28;10.77;;;7.40;;
15327;SDS011;7764;51.430;6.840;2023-11-22T11:50:55;10.20;;;6.00;;
15327;SDS011;7764;51.430;6.840;2023-11-22T11:53:26;9.87;;;6.20;;
15327;SDS011;7764;51.430;6.840;2023-11-22T11:56:01;11.30;;;6.83;;
15327;SDS011;7764;51.430;6.840;2023-11-22T11:59:09;9.40;;;6.53;;
15327;SDS011;7764;51.430;6.840;2023-11-22T12:01:41;27.40;;;6.83;;
15327;SDS011;7764;51.430;6.840;2023-11-22T12:04:08;11.60;;;6.50;;
15327;SDS011;7764;51.430;6.840;2023-11-22T12:06:36;10.20;;;6.63;;
15327;SDS011;7764;51.430;6.840;2023-11-22T12:09:05;10.50;;;6.17;;
15327;SDS011;7764;51.430;6.840;2023-11-22T12:11:34;25.00;;;14.50;;
15327;SDS011;7764;51.430;6.840;2023-11-22T12:14:01;7.20;;;4.93;;
15327;SDS011;7764;51.430;6.840;2023-11-22T12:16:37;8.77;;;4.93;;
15327;SDS011;7764;51.430;6.840;2023-11-22T12:19:14;8.00;;;4.50;;
15327;SDS011;7764;51.430;6.840;2023-11-22T12:21:50;7.70;;;4.40;;
15327;SDS011;7764;51.430;6.840;2023-11-22T12:24:28;9.77;;;4.73;;
15327;SDS011;7764;51.430;6.840;2023-11-22T12:26:58;10.40;;;5.60;;
15327;SDS011;7764;51.430;6.840;2023-11-22T12:29:25;8.60;;;5.67;;
15327;SDS011;7764;51.430;6.840;2023-11-22T12:31:52;8.10;;;5.20;;
15327;SDS011;7764;51.430;6.840;2023-11-22T12:34:23;9.40;;;5.83;;
15327;SDS011;7764;51.430;6.840;2023-11-22T12:36:53;8.00;;;5.23;;
15327;SDS011;7764;51.430;6.840;2023-11-22T12:39:21;7.60;;;4.90;;
15327;SDS011;7764;51.430;6.840;2023-11-22T12:41:49;10.20;;;6.13;;
15327;SDS011;7764;51.430;6.840;2023-11-22T12:44:54;15.33;;;10.87;;
15327;SDS011;7764;51.430;6.840;2023-11-22T12:47:33;9.57;;;5.77;;
15327;SDS011;7764;51.430;6.840;2023-11-22T12:50:06;7.60;;;4.33;;
15327;SDS011;7764;51.430;6.840;2023-11-22T12:52:47;7.00;;;4.03;;
15327;SDS011;7764;51.430;6.840;2023-11-22T12:55:18;9.53;;;4.63;;
15327;SDS011;7764;51.430;6.840;2023-11-22T12:57:55;9.93;;;4.03;;
15327;SDS011;7764;51.430;6.840;2023-11-22T13:00:33;8.53;;;4.43;;
15327;SDS011;7764;51.430;6.840;2023-11-22T13:03:00;7.43;;;4.70;;
15327;SDS011;7764;51.430;6.840;2023-11-22T13:05:30;6.70;;;3.90;;
15327;SDS011;7764;51.430;6.840;2023-11-22T13:07:57;13.37;;;4.10;;
15327;SDS011;7764;51.430;6.840;2023-11-22T13:10:27;6.67;;;4.00;;
15327;SDS011;7764;51.430;6.840;2023-11-22T13:12:54;8.90;;;4.30;;
15327;SDS011;7764;51.430;6.840;2023-11-22T13:15:21;7.80;;;3.57;;
15327;SDS011;7764;51.430;6.840;2023-11-22T13:17:49;13.33;;;5.60;;
15327;SDS011;7764;51.430;6.840;2023-11-22T13:20:20;17.77;;;10.53;;
15327;SDS011;7764;51.430;6.840;2023-11-22T13:22:51;5.70;;;2.57;;
15327;SDS011;7764;51.430;6.840;2023-11-22T13:25:18;4.20;;;2.60;;
15327;SDS011;7764;51.430;6.840;2023-11-22T13:27:51;4.43;;;2.47;;
15327;SDS011;7764;51.430;6.840;2023-11-22T13:30:22;5.10;;;2.63;;
15327;SDS011;7764;51.430;6.840;2023-11-22T13:32:50;6.10;;;2.93;;
15327;SDS011;7764;51.430;6.840;2023-11-22T13:35:17;5.07;;;2.57;;
15327;SDS011;7764;51.430;6.840;2023-11-22T13:37:45;8.20;;;3.30;;
15327;SDS011;7764;51.430;6.840;2023-11-22T13:40:14;5.73;;;3.30;;
15327;SDS011;7764;51.430;6.840;2023-11-22T13:42:42;4.73;;;2.73;;
15327;SDS011;7764;51.430;6.840;2023-11-22T13:45:17;6.00;;;2.77;;
15327;SDS011;7764;51.430;6.840;2023-11-22T13:47:58;4.97;;;2.80;;
15327;SDS011;7764;51.430;6.840;2023-11-22T13:50:29;5.90;;;3.30;;
15327;SDS011;7764;51.430;6.840;2023-11-22T13:52:56;6.50;;;3.20;;
15327;SDS011;7764;51.430;6.840;2023-11-22T13:55:27;4.73;;;2.70;;
15327;SDS011;7764;51.430;6.840;2023-11-22T13:57:56;6.73;;;2.60;;
15327;SDS011;7764;51.430;6.840;2023-11-22T14:00:32;5.63;;;2.80;;
15327;SDS011;7764;51.430;6.840;2023-11-22T14:03:03;5.43;;;2.70;;
15327;SDS011;7764;51.430;6.840;2023-11-22T14:05:31;11.07;;;5.30;;
15327;SDS011;7764;51.430;6.840;2023-11-22T14:07:59;7.00;;;2.70;;
15327;SDS011;7764;51.430;6.840;2023-11-22T14:10:29;12.60;;;7.63;;
15327;SDS011;7764;51.430;6.840;2023-11-22T14:13:03;6.83;;;3.40;;
15327;SDS011;7764;51.430;6.840;2023-11-22T14:15:33;3.70;;;2.47;;
15327;SDS011;7764;51.430;6.840;2023-11-22T14:18:04;5.20;;;2.60;;
15327;SDS011;7764;51.430;6.840;2023-11-22T14:20:32;6.30;;;2.80;;
15327;SDS011;7764;51.430;6.840;2023-11-22T14:22:59;5.90;;;3.50;;
15327;SDS011;7764;51.430;6.840;2023-11-22T14:25:31;12.23;;;4.77;;
15327;SDS011;7764;51.430;6.840;2023-11-22T14:27:59;22.07;;;12.07;;
15327;SDS011;7764;51.430;6.840;2023-11-22T14:30:25;32.30;;;20.83;;
15327;SDS011;7764;51.430;6.840;2023-11-22T14:32:56;14.13;;;8.00;;
15327;SDS011;7764;51.430;6.840;2023-11-22T14:35:24;44.23;;;28.70;;
15327;SDS011;7764;51.430;6.840;2023-11-22T14:37:52;8.97;;;4.13;;
15327;SDS011;7764;51.430;6.840;2023-11-22T14:40:20;8.97;;;4.27;;
15327;SDS011;7764;51.430;6.840;2023-11-22T14:42:52;6.77;;;3.27;;
15327;SDS011;7764;51.430;6.840;2023-11-22T14:45:23;10.07;;;4.63;;
15327;SDS011;7764;51.430;6.840;2023-11-22T14:47:51;8.60;;;4.30;;
15327;SDS011;7764;51.430;6.840;2023-11-22T14:50:19;14.20;;;5.07;;
15327;SDS011;7764;51.430;6.840;2023-11-22T14:52:46;10.80;;;5.37;;
15327;SDS011;7764;51.430;6.840;2023-11-22T14:55:15;11.50;;;5.20;;
15327;SDS011;7764;51.430;6.840;2023-11-22T14:57:44;14.43;;;9.83;;
15327;SDS011;7764;51.430;6.840;2023-11-22T15:00:17;8.50;;;5.07;;